M/V Hera — V7UA5 — position and weather

sailwx.info

Track history (hours):
 
Tides and Currents Weather Stations Pressure Air Temp Water Temp Dewpoint Dewpoint Depression Visibility Wind Speed Wind Dir Waves Ship Positions

M/V Hera

Last reported at 2014-Dec-21 10:11 UTC. Time now 2014-Dec-22 12:05 UTC.
Position N 39°15' W 071°19'.

Length 175 m; draft 5.5 m.

Type: Cargo ship. MMSI: 538003917.

Date/timePositionNaut miles runAvg speedWind from/ knotsBaromVisibWave heightAir tempDewpointWater temp
2014-Dec-21 10:11N 39°15' W 071°19'1710.1
2014-Dec-21 08:33N 39°12' W 071°40'1110.5
2014-Dec-21 07:31N 39°10' W 071°53'1110.5
2014-Dec-21 06:31N 39°08' W 072°07'1010.4
2014-Dec-21 05:33N 39°06' W 072°19'1110.3
2014-Dec-21 04:31N 39°03' W 072°33'1010.4
2014-Dec-21 03:32N 39°02' W 072°46'1110.7
2014-Dec-21 02:30N 38°59' W 072°60'1311.1
2014-Dec-21 01:20N 38°57' W 073°16'  
2014-Dec-17 12:29N 39°29' W 072°52'1411.9
2014-Dec-17 11:21N 39°40' W 072°41'2011.4
2014-Dec-17 09:33N 39°55' W 072°24'1211.6
2014-Dec-17 08:33N 40°04' W 072°15'1111.2
2014-Dec-17 07:33N 40°13' W 072°05'1111.1
2014-Dec-17 06:33N 40°22' W 071°57'1111.2
2014-Dec-17 05:33N 40°30' W 071°47'1211.8
2014-Dec-17 04:33N 40°40' W 071°37'1211.8
2014-Dec-17 03:33N 40°49' W 071°29'1211.9
2014-Dec-17 02:33N 41°01' W 071°29'1212.0
2014-Dec-17 01:33N 41°13' W 071°29'8 8.3
2014-Dec-17 00:33N 41°17' W 071°39'1211.9
2014-Dec-16 23:33N 41°14' W 071°54'1111.2
2014-Dec-16 22:33N 41°13' W 072°09'1110.7
2014-Dec-16 21:33N 41°11' W 072°23'1010.4
2014-Dec-16 20:33N 41°10' W 072°37'1111.2
2014-Dec-16 19:33N 41°12' W 072°51'6 6.3
2014-Dec-16 18:31N 41°18' W 072°54'0 0.0
2014-Dec-16 16:04N 41°18' W 072°54'0 0.0
2014-Dec-16 14:13N 41°18' W 072°54'0 0.0
2014-Dec-16 13:28N 41°18' W 072°54'0 0.0
2014-Dec-16 07:28N 41°18' W 072°54'0 0.0
2014-Dec-16 06:22N 41°18' W 072°54'0 0.0
2014-Dec-15 18:28N 41°18' W 072°54'0 0.0
2014-Dec-15 17:22N 41°18' W 072°54'0 0.0
2014-Dec-15 07:10N 41°18' W 072°54'0 0.0
2014-Dec-14 11:07N 41°18' W 072°54'0 0.0
2014-Dec-14 10:31N 41°18' W 072°54'0 0.0
2014-Dec-14 09:19N 41°18' W 072°54'0 0.0
2014-Dec-14 08:25N 41°18' W 072°54'0 0.0
2014-Dec-14 06:25N 41°18' W 072°54'0 0.0
2014-Dec-14 05:31N 41°18' W 072°54'0 0.0
2014-Dec-14 04:25N 41°18' W 072°54'0 0.0
2014-Dec-14 00:19N 41°18' W 072°54'0 0.0
2014-Dec-13 15:25N 41°18' W 072°54'0 0.0
2014-Dec-13 08:19N 41°18' W 072°54'0 0.0
2014-Dec-13 05:16N 41°18' W 072°54'0 0.0
2014-Dec-13 04:33N 41°18' W 072°54'0 0.0
2014-Dec-13 01:30N 41°18' W 072°54'0 0.0
2014-Dec-12 23:07N 41°18' W 072°54'0 0.0
2014-Dec-12 22:15N 41°18' W 072°54'0 0.0
2014-Dec-12 21:31N 41°18' W 072°54'0 0.0
2014-Dec-12 20:31N 41°18' W 072°54'0 0.0
2014-Dec-12 19:24N 41°18' W 072°54'0 0.0
2014-Dec-12 18:06N 41°18' W 072°54'0 0.7
2014-Dec-12 17:33N 41°17' W 072°55'6 5.5
2014-Dec-12 16:33N 41°12' W 072°53'9 8.6
2014-Dec-12 15:34N 41°08' W 072°43'10 9.7
2014-Dec-12 14:34N 41°08' W 072°30'10 9.6
2014-Dec-12 13:34N 41°11' W 072°18'9 8.9
2014-Dec-12 12:34N 41°14' W 072°07'8 8.2
2014-Dec-12 11:33N 41°14' W 071°56'9 9.4
2014-Dec-12 10:34N 41°16' W 071°43'9 9.3
2014-Dec-12 09:33N 41°18' W 071°31'5 4.7
2014-Dec-12 08:34N 41°13' W 071°29'5 5.3
2014-Dec-12 07:33N 41°08' W 071°28'5 5.5
2014-Dec-12 06:33N 41°02' W 071°29'9 8.7
2014-Dec-12 05:33N 40°54' W 071°29'8 8.1
2014-Dec-12 04:33N 40°46' W 071°30'4 3.9
2014-Dec-12 03:34N 40°49' W 071°33'3 2.8
2014-Dec-12 02:34N 40°47' W 071°31'10 9.6
2014-Dec-12 01:33N 40°38' W 071°36'9 9.1
2014-Dec-12 00:34N 40°31' W 071°43'1010.0
2014-Dec-11 23:34N 40°22' W 071°48'10 9.8
2014-Dec-11 22:32N 40°12' W 071°54'7 7.1
2014-Dec-11 21:34N 40°06' W 071°52'9 7.4
2014-Dec-11 20:22N 39°60' W 071°44'8 6.9
2014-Dec-11 19:16N 39°55' W 071°37'7 6.0
2014-Dec-11 18:11N 39°50' W 071°30'  
Track history (hours):
 
Tides and Currents Weather Stations Pressure Air Temp Water Temp Dewpoint Dewpoint Depression Visibility Wind Speed Wind Dir Waves Ship Positions

M/V Hera

Last reported at 2014-Dec-21 10:11 UTC. Time now 2014-Dec-22 12:05 UTC.
Position N 39°15' W 071°19'.

Length 175 m; draft 5.5 m.

Type: Cargo ship. MMSI: 538003917.

Date/timePositionNaut miles runAvg speedWind from/ knotsBaromVisibWave heightAir tempDewpointWater temp
2014-Dec-21 10:11N 39°15' W 071°19'1710.1
2014-Dec-21 08:33N 39°12' W 071°40'1110.5
2014-Dec-21 07:31N 39°10' W 071°53'1110.5
2014-Dec-21 06:31N 39°08' W 072°07'1010.4
2014-Dec-21 05:33N 39°06' W 072°19'1110.3
2014-Dec-21 04:31N 39°03' W 072°33'1010.4
2014-Dec-21 03:32N 39°02' W 072°46'1110.7
2014-Dec-21 02:30N 38°59' W 072°60'1311.1
2014-Dec-21 01:20N 38°57' W 073°16'  
2014-Dec-17 12:29N 39°29' W 072°52'1411.9
2014-Dec-17 11:21N 39°40' W 072°41'2011.4
2014-Dec-17 09:33N 39°55' W 072°24'1211.6
2014-Dec-17 08:33N 40°04' W 072°15'1111.2
2014-Dec-17 07:33N 40°13' W 072°05'1111.1
2014-Dec-17 06:33N 40°22' W 071°57'1111.2
2014-Dec-17 05:33N 40°30' W 071°47'1211.8
2014-Dec-17 04:33N 40°40' W 071°37'1211.8
2014-Dec-17 03:33N 40°49' W 071°29'1211.9
2014-Dec-17 02:33N 41°01' W 071°29'1212.0
2014-Dec-17 01:33N 41°13' W 071°29'8 8.3
2014-Dec-17 00:33N 41°17' W 071°39'1211.9
2014-Dec-16 23:33N 41°14' W 071°54'1111.2
2014-Dec-16 22:33N 41°13' W 072°09'1110.7
2014-Dec-16 21:33N 41°11' W 072°23'1010.4
2014-Dec-16 20:33N 41°10' W 072°37'1111.2
2014-Dec-16 19:33N 41°12' W 072°51'6 6.3
2014-Dec-16 18:31N 41°18' W 072°54'0 0.0
2014-Dec-16 16:04N 41°18' W 072°54'0 0.0
2014-Dec-16 14:13N 41°18' W 072°54'0 0.0
2014-Dec-16 13:28N 41°18' W 072°54'0 0.0
2014-Dec-16 07:28N 41°18' W 072°54'0 0.0
2014-Dec-16 06:22N 41°18' W 072°54'0 0.0
2014-Dec-15 18:28N 41°18' W 072°54'0 0.0
2014-Dec-15 17:22N 41°18' W 072°54'0 0.0
2014-Dec-15 07:10N 41°18' W 072°54'0 0.0
2014-Dec-14 11:07N 41°18' W 072°54'0 0.0
2014-Dec-14 10:31N 41°18' W 072°54'0 0.0
2014-Dec-14 09:19N 41°18' W 072°54'0 0.0
2014-Dec-14 08:25N 41°18' W 072°54'0 0.0
2014-Dec-14 06:25N 41°18' W 072°54'0 0.0
2014-Dec-14 05:31N 41°18' W 072°54'0 0.0
2014-Dec-14 04:25N 41°18' W 072°54'0 0.0
2014-Dec-14 00:19N 41°18' W 072°54'0 0.0
2014-Dec-13 15:25N 41°18' W 072°54'0 0.0
2014-Dec-13 08:19N 41°18' W 072°54'0 0.0
2014-Dec-13 05:16N 41°18' W 072°54'0 0.0
2014-Dec-13 04:33N 41°18' W 072°54'0 0.0
2014-Dec-13 01:30N 41°18' W 072°54'0 0.0
2014-Dec-12 23:07N 41°18' W 072°54'0 0.0
2014-Dec-12 22:15N 41°18' W 072°54'0 0.0
2014-Dec-12 21:31N 41°18' W 072°54'0 0.0
2014-Dec-12 20:31N 41°18' W 072°54'0 0.0
2014-Dec-12 19:24N 41°18' W 072°54'0 0.0
2014-Dec-12 18:06N 41°18' W 072°54'0 0.7
2014-Dec-12 17:33N 41°17' W 072°55'6 5.5
2014-Dec-12 16:33N 41°12' W 072°53'9 8.6
2014-Dec-12 15:34N 41°08' W 072°43'10 9.7
2014-Dec-12 14:34N 41°08' W 072°30'10 9.6
2014-Dec-12 13:34N 41°11' W 072°18'9 8.9
2014-Dec-12 12:34N 41°14' W 072°07'8 8.2
2014-Dec-12 11:33N 41°14' W 071°56'9 9.4
2014-Dec-12 10:34N 41°16' W 071°43'9 9.3
2014-Dec-12 09:33N 41°18' W 071°31'5 4.7
2014-Dec-12 08:34N 41°13' W 071°29'5 5.3
2014-Dec-12 07:33N 41°08' W 071°28'5 5.5
2014-Dec-12 06:33N 41°02' W 071°29'9 8.7
2014-Dec-12 05:33N 40°54' W 071°29'8 8.1
2014-Dec-12 04:33N 40°46' W 071°30'4 3.9
2014-Dec-12 03:34N 40°49' W 071°33'3 2.8
2014-Dec-12 02:34N 40°47' W 071°31'10 9.6
2014-Dec-12 01:33N 40°38' W 071°36'9 9.1
2014-Dec-12 00:34N 40°31' W 071°43'1010.0
2014-Dec-11 23:34N 40°22' W 071°48'10 9.8
2014-Dec-11 22:32N 40°12' W 071°54'7 7.1
2014-Dec-11 21:34N 40°06' W 071°52'9 7.4
2014-Dec-11 20:22N 39°60' W 071°44'8 6.9
2014-Dec-11 19:16N 39°55' W 071°37'7 6.0
2014-Dec-11 18:11N 39°50' W 071°30'  

Dump ship's entire track history